METAR Data
IDs: Format: Raw Decoded Include TAF

Data at: 0023 UTC 30 May 2020

METAR for:KFDK (Frederick Muni, MD, US)
Text:KFDK 292347Z 20008KT 10SM SCT028 27/22 A2989
Temperature: 27.0°C ( 81°F)
Dewpoint: 22.0°C ( 72°F) [RH = 74%]
Pressure (altimeter):29.89 inches Hg (1012.3 mb)
Winds:from the SSW (200 degrees) at 9 MPH (8 knots; 4.1 m/s)
Visibility:10 or more sm (16+ km)
Ceiling:at least 12,000 feet AGL
Clouds: scattered clouds at 2800 feet AGL